sensor_id;sensor_type;location;lat;lon;timestamp;P1;durP1;ratioP1;P2;durP2;ratioP2
31764;SDS011;18338;53.240;8.798;2023-04-25T00:02:10;18.53;;;5.00;;
31764;SDS011;18338;53.240;8.798;2023-04-25T00:04:37;15.07;;;4.45;;
31764;SDS011;18338;53.240;8.798;2023-04-25T00:07:05;21.25;;;6.07;;
31764;SDS011;18338;53.240;8.798;2023-04-25T00:09:32;17.17;;;4.13;;
31764;SDS011;18338;53.240;8.798;2023-04-25T00:11:59;17.47;;;4.37;;
31764;SDS011;18338;53.240;8.798;2023-04-25T00:14:27;17.85;;;4.68;;
31764;SDS011;18338;53.240;8.798;2023-04-25T00:16:53;15.35;;;4.38;;
31764;SDS011;18338;53.240;8.798;2023-04-25T00:19:20;17.30;;;5.23;;
31764;SDS011;18338;53.240;8.798;2023-04-25T00:21:47;12.30;;;3.85;;
31764;SDS011;18338;53.240;8.798;2023-04-25T00:24:14;19.73;;;5.43;;
31764;SDS011;18338;53.240;8.798;2023-04-25T00:26:41;21.73;;;4.90;;
31764;SDS011;18338;53.240;8.798;2023-04-25T00:29:08;18.87;;;3.93;;
31764;SDS011;18338;53.240;8.798;2023-04-25T00:31:35;22.87;;;4.67;;
31764;SDS011;18338;53.240;8.798;2023-04-25T00:34:01;13.67;;;4.37;;
31764;SDS011;18338;53.240;8.798;2023-04-25T00:36:29;20.23;;;5.10;;
31764;SDS011;18338;53.240;8.798;2023-04-25T00:38:56;13.73;;;4.60;;
31764;SDS011;18338;53.240;8.798;2023-04-25T00:41:23;17.63;;;4.83;;
31764;SDS011;18338;53.240;8.798;2023-04-25T00:43:52;16.40;;;5.60;;
31764;SDS011;18338;53.240;8.798;2023-04-25T00:46:20;19.67;;;4.77;;
31764;SDS011;18338;53.240;8.798;2023-04-25T00:48:47;14.80;;;4.70;;
31764;SDS011;18338;53.240;8.798;2023-04-25T00:51:15;22.50;;;5.47;;
31764;SDS011;18338;53.240;8.798;2023-04-25T00:53:45;17.47;;;4.83;;
31764;SDS011;18338;53.240;8.798;2023-04-25T00:56:12;17.17;;;4.43;;
31764;SDS011;18338;53.240;8.798;2023-04-25T00:58:39;21.17;;;4.57;;
31764;SDS011;18338;53.240;8.798;2023-04-25T01:01:07;18.47;;;4.10;;
31764;SDS011;18338;53.240;8.798;2023-04-25T01:03:37;19.60;;;5.60;;
31764;SDS011;18338;53.240;8.798;2023-04-25T01:06:09;15.07;;;4.33;;
31764;SDS011;18338;53.240;8.798;2023-04-25T01:08:38;10.17;;;4.47;;
31764;SDS011;18338;53.240;8.798;2023-04-25T01:11:05;16.90;;;5.23;;
31764;SDS011;18338;53.240;8.798;2023-04-25T01:13:33;17.57;;;4.30;;
31764;SDS011;18338;53.240;8.798;2023-04-25T01:16:00;17.03;;;4.37;;
31764;SDS011;18338;53.240;8.798;2023-04-25T01:18:28;16.57;;;4.70;;
31764;SDS011;18338;53.240;8.798;2023-04-25T01:20:55;15.80;;;4.20;;
31764;SDS011;18338;53.240;8.798;2023-04-25T01:23:21;15.30;;;4.90;;
31764;SDS011;18338;53.240;8.798;2023-04-25T01:25:50;14.87;;;3.73;;
31764;SDS011;18338;53.240;8.798;2023-04-25T01:28:17;17.97;;;4.00;;
31764;SDS011;18338;53.240;8.798;2023-04-25T01:30:44;11.40;;;4.00;;
31764;SDS011;18338;53.240;8.798;2023-04-25T01:33:11;15.27;;;4.10;;
31764;SDS011;18338;53.240;8.798;2023-04-25T01:35:39;14.50;;;3.90;;
31764;SDS011;18338;53.240;8.798;2023-04-25T01:38:06;14.73;;;3.63;;
31764;SDS011;18338;53.240;8.798;2023-04-25T01:40:33;19.07;;;4.30;;
31764;SDS011;18338;53.240;8.798;2023-04-25T01:43:02;14.87;;;3.57;;
31764;SDS011;18338;53.240;8.798;2023-04-25T01:45:28;15.47;;;3.97;;
31764;SDS011;18338;53.240;8.798;2023-04-25T01:47:55;12.80;;;3.90;;
31764;SDS011;18338;53.240;8.798;2023-04-25T01:50:25;14.80;;;4.07;;
31764;SDS011;18338;53.240;8.798;2023-04-25T01:52:52;13.93;;;3.67;;
31764;SDS011;18338;53.240;8.798;2023-04-25T01:55:19;13.07;;;3.50;;
31764;SDS011;18338;53.240;8.798;2023-04-25T01:57:46;9.67;;;3.43;;
31764;SDS011;18338;53.240;8.798;2023-04-25T02:00:13;15.07;;;3.97;;
31764;SDS011;18338;53.240;8.798;2023-04-25T02:02:40;11.50;;;3.57;;
31764;SDS011;18338;53.240;8.798;2023-04-25T02:05:08;12.67;;;3.23;;
31764;SDS011;18338;53.240;8.798;2023-04-25T02:07:35;10.40;;;3.97;;
31764;SDS011;18338;53.240;8.798;2023-04-25T02:10:01;12.33;;;3.20;;
31764;SDS011;18338;53.240;8.798;2023-04-25T02:12:29;12.63;;;3.67;;
31764;SDS011;18338;53.240;8.798;2023-04-25T02:14:55;15.60;;;3.97;;
31764;SDS011;18338;53.240;8.798;2023-04-25T02:17:22;17.93;;;4.07;;
31764;SDS011;18338;53.240;8.798;2023-04-25T02:19:49;11.83;;;3.80;;
31764;SDS011;18338;53.240;8.798;2023-04-25T02:22:16;14.07;;;4.53;;
31764;SDS011;18338;53.240;8.798;2023-04-25T02:24:42;16.83;;;4.30;;
31764;SDS011;18338;53.240;8.798;2023-04-25T02:27:10;14.03;;;4.23;;
31764;SDS011;18338;53.240;8.798;2023-04-25T02:29:36;14.87;;;4.63;;
31764;SDS011;18338;53.240;8.798;2023-04-25T02:32:03;19.13;;;4.87;;
31764;SDS011;18338;53.240;8.798;2023-04-25T02:34:30;16.53;;;4.10;;
31764;SDS011;18338;53.240;8.798;2023-04-25T02:36:56;12.87;;;4.33;;
31764;SDS011;18338;53.240;8.798;2023-04-25T02:39:23;12.97;;;3.77;;
31764;SDS011;18338;53.240;8.798;2023-04-25T02:41:51;12.73;;;3.83;;
31764;SDS011;18338;53.240;8.798;2023-04-25T02:44:18;13.77;;;4.07;;
31764;SDS011;18338;53.240;8.798;2023-04-25T02:46:44;12.67;;;4.30;;
31764;SDS011;18338;53.240;8.798;2023-04-25T02:49:12;11.90;;;3.70;;
31764;SDS011;18338;53.240;8.798;2023-04-25T02:51:38;15.13;;;3.90;;
31764;SDS011;18338;53.240;8.798;2023-04-25T02:54:05;16.47;;;4.53;;
31764;SDS011;18338;53.240;8.798;2023-04-25T02:56:32;16.27;;;5.37;;
31764;SDS011;18338;53.240;8.798;2023-04-25T02:58:59;13.70;;;4.23;;
31764;SDS011;18338;53.240;8.798;2023-04-25T03:01:25;17.07;;;4.37;;
31764;SDS011;18338;53.240;8.798;2023-04-25T03:03:52;13.87;;;3.70;;
31764;SDS011;18338;53.240;8.798;2023-04-25T03:06:20;10.37;;;3.50;;
31764;SDS011;18338;53.240;8.798;2023-04-25T03:08:46;16.90;;;3.90;;
31764;SDS011;18338;53.240;8.798;2023-04-25T03:11:13;17.73;;;4.20;;
31764;SDS011;18338;53.240;8.798;2023-04-25T03:13:40;17.93;;;3.67;;
31764;SDS011;18338;53.240;8.798;2023-04-25T03:16:06;15.07;;;4.13;;
31764;SDS011;18338;53.240;8.798;2023-04-25T03:18:33;11.97;;;3.63;;
31764;SDS011;18338;53.240;8.798;2023-04-25T03:21:00;16.53;;;4.10;;
31764;SDS011;18338;53.240;8.798;2023-04-25T03:23:27;19.07;;;4.33;;
31764;SDS011;18338;53.240;8.798;2023-04-25T03:25:53;18.33;;;3.77;;
31764;SDS011;18338;53.240;8.798;2023-04-25T03:28:20;15.80;;;3.60;;
31764;SDS011;18338;53.240;8.798;2023-04-25T03:30:47;12.47;;;3.37;;
31764;SDS011;18338;53.240;8.798;2023-04-25T03:33:14;14.60;;;3.60;;
31764;SDS011;18338;53.240;8.798;2023-04-25T03:35:40;15.37;;;3.40;;
31764;SDS011;18338;53.240;8.798;2023-04-25T03:38:08;10.10;;;3.23;;
31764;SDS011;18338;53.240;8.798;2023-04-25T03:40:35;15.83;;;3.57;;
31764;SDS011;18338;53.240;8.798;2023-04-25T03:43:01;13.93;;;3.37;;
31764;SDS011;18338;53.240;8.798;2023-04-25T03:45:28;13.63;;;3.70;;
31764;SDS011;18338;53.240;8.798;2023-04-25T03:47:55;9.67;;;3.10;;
31764;SDS011;18338;53.240;8.798;2023-04-25T03:50:22;15.40;;;3.33;;
31764;SDS011;18338;53.240;8.798;2023-04-25T03:52:48;16.87;;;4.83;;
31764;SDS011;18338;53.240;8.798;2023-04-25T03:55:15;14.97;;;3.80;;
31764;SDS011;18338;53.240;8.798;2023-04-25T03:57:43;11.83;;;3.23;;
31764;SDS011;18338;53.240;8.798;2023-04-25T04:00:11;15.57;;;4.30;;
31764;SDS011;18338;53.240;8.798;2023-04-25T04:02:38;9.30;;;2.83;;
31764;SDS011;18338;53.240;8.798;2023-04-25T04:05:07;12.50;;;3.30;;
31764;SDS011;18338;53.240;8.798;2023-04-25T04:07:34;12.37;;;3.40;;
31764;SDS011;18338;53.240;8.798;2023-04-25T04:10:06;11.77;;;2.87;;
31764;SDS011;18338;53.240;8.798;2023-04-25T04:12:33;12.07;;;2.30;;
31764;SDS011;18338;53.240;8.798;2023-04-25T04:15:01;8.00;;;2.90;;
31764;SDS011;18338;53.240;8.798;2023-04-25T04:17:32;7.33;;;2.80;;
31764;SDS011;18338;53.240;8.798;2023-04-25T04:19:59;9.40;;;2.53;;
31764;SDS011;18338;53.240;8.798;2023-04-25T04:22:26;14.80;;;2.87;;
31764;SDS011;18338;53.240;8.798;2023-04-25T04:24:52;8.83;;;2.40;;
31764;SDS011;18338;53.240;8.798;2023-04-25T04:27:21;12.93;;;3.00;;
31764;SDS011;18338;53.240;8.798;2023-04-25T04:29:47;8.40;;;2.43;;
31764;SDS011;18338;53.240;8.798;2023-04-25T04:32:15;13.43;;;2.63;;
31764;SDS011;18338;53.240;8.798;2023-04-25T04:35:00;12.03;;;3.10;;
31764;SDS011;18338;53.240;8.798;2023-04-25T04:37:27;9.80;;;2.43;;
31764;SDS011;18338;53.240;8.798;2023-04-25T04:39:53;12.97;;;2.40;;
31764;SDS011;18338;53.240;8.798;2023-04-25T04:42:21;16.93;;;2.97;;
31764;SDS011;18338;53.240;8.798;2023-04-25T04:44:47;8.57;;;2.47;;
31764;SDS011;18338;53.240;8.798;2023-04-25T04:47:14;8.97;;;2.60;;
31764;SDS011;18338;53.240;8.798;2023-04-25T04:49:41;12.10;;;2.73;;
31764;SDS011;18338;53.240;8.798;2023-04-25T04:52:07;7.73;;;2.57;;
31764;SDS011;18338;53.240;8.798;2023-04-25T04:54:34;10.37;;;2.30;;
31764;SDS011;18338;53.240;8.798;2023-04-25T04:57:01;7.10;;;2.27;;
31764;SDS011;18338;53.240;8.798;2023-04-25T04:59:28;8.37;;;2.77;;
31764;SDS011;18338;53.240;8.798;2023-04-25T05:01:55;10.10;;;2.63;;
31764;SDS011;18338;53.240;8.798;2023-04-25T05:04:22;5.87;;;2.23;;
31764;SDS011;18338;53.240;8.798;2023-04-25T05:06:49;7.90;;;2.20;;
31764;SDS011;18338;53.240;8.798;2023-04-25T05:09:15;10.97;;;2.40;;
31764;SDS011;18338;53.240;8.798;2023-04-25T05:11:43;11.67;;;2.00;;
31764;SDS011;18338;53.240;8.798;2023-04-25T05:14:09;9.00;;;2.00;;
31764;SDS011;18338;53.240;8.798;2023-04-25T05:16:36;7.97;;;2.27;;
31764;SDS011;18338;53.240;8.798;2023-04-25T05:19:04;6.37;;;1.93;;
31764;SDS011;18338;53.240;8.798;2023-04-25T05:21:30;12.70;;;2.70;;
31764;SDS011;18338;53.240;8.798;2023-04-25T05:23:57;10.17;;;2.10;;
31764;SDS011;18338;53.240;8.798;2023-04-25T05:26:24;8.23;;;2.10;;
31764;SDS011;18338;53.240;8.798;2023-04-25T05:28:50;8.30;;;2.03;;
31764;SDS011;18338;53.240;8.798;2023-04-25T05:31:17;10.97;;;2.17;;
31764;SDS011;18338;53.240;8.798;2023-04-25T05:33:45;7.37;;;2.00;;
31764;SDS011;18338;53.240;8.798;2023-04-25T05:36:11;6.10;;;2.30;;
31764;SDS011;18338;53.240;8.798;2023-04-25T05:38:38;8.83;;;1.70;;
31764;SDS011;18338;53.240;8.798;2023-04-25T05:41:04;9.53;;;2.17;;
31764;SDS011;18338;53.240;8.798;2023-04-25T05:43:31;11.60;;;2.58;;
31764;SDS011;18338;53.240;8.798;2023-04-25T05:45:58;7.35;;;2.08;;
31764;SDS011;18338;53.240;8.798;2023-04-25T05:48:24;7.75;;;2.03;;
31764;SDS011;18338;53.240;8.798;2023-04-25T05:50:51;11.23;;;2.33;;
31764;SDS011;18338;53.240;8.798;2023-04-25T05:53:18;5.93;;;1.90;;
31764;SDS011;18338;53.240;8.798;2023-04-25T05:55:46;10.37;;;2.27;;
31764;SDS011;18338;53.240;8.798;2023-04-25T05:58:13;8.03;;;1.90;;
31764;SDS011;18338;53.240;8.798;2023-04-25T06:00:40;9.82;;;2.03;;
31764;SDS011;18338;53.240;8.798;2023-04-25T06:03:08;5.57;;;1.80;;
31764;SDS011;18338;53.240;8.798;2023-04-25T06:05:43;9.57;;;1.90;;
31764;SDS011;18338;53.240;8.798;2023-04-25T06:08:09;9.50;;;1.83;;
31764;SDS011;18338;53.240;8.798;2023-04-25T06:10:36;10.13;;;1.83;;
31764;SDS011;18338;53.240;8.798;2023-04-25T06:13:04;5.30;;;1.50;;
31764;SDS011;18338;53.240;8.798;2023-04-25T06:15:31;11.00;;;1.97;;
31764;SDS011;18338;53.240;8.798;2023-04-25T06:18:00;8.07;;;1.80;;
31764;SDS011;18338;53.240;8.798;2023-04-25T06:20:28;6.30;;;2.10;;
31764;SDS011;18338;53.240;8.798;2023-04-25T06:22:54;7.20;;;1.93;;
31764;SDS011;18338;53.240;8.798;2023-04-25T06:25:21;7.00;;;2.08;;
31764;SDS011;18338;53.240;8.798;2023-04-25T06:27:48;9.02;;;2.75;;
31764;SDS011;18338;53.240;8.798;2023-04-25T06:30:15;8.27;;;2.50;;
31764;SDS011;18338;53.240;8.798;2023-04-25T06:32:44;9.60;;;2.30;;
31764;SDS011;18338;53.240;8.798;2023-04-25T06:35:11;7.80;;;2.00;;
31764;SDS011;18338;53.240;8.798;2023-04-25T06:37:39;6.28;;;1.67;;
31764;SDS011;18338;53.240;8.798;2023-04-25T06:40:07;6.63;;;2.17;;
31764;SDS011;18338;53.240;8.798;2023-04-25T06:42:34;9.03;;;2.13;;
31764;SDS011;18338;53.240;8.798;2023-04-25T06:45:00;6.90;;;2.40;;
31764;SDS011;18338;53.240;8.798;2023-04-25T06:47:28;7.13;;;1.80;;
31764;SDS011;18338;53.240;8.798;2023-04-25T06:49:55;6.25;;;1.88;;
31764;SDS011;18338;53.240;8.798;2023-04-25T06:52:22;7.03;;;1.60;;
31764;SDS011;18338;53.240;8.798;2023-04-25T06:54:49;5.83;;;1.73;;
31764;SDS011;18338;53.240;8.798;2023-04-25T06:57:19;6.03;;;1.20;;
31764;SDS011;18338;53.240;8.798;2023-04-25T07:00:03;4.73;;;1.13;;
31764;SDS011;18338;53.240;8.798;2023-04-25T07:02:31;5.83;;;1.40;;
31764;SDS011;18338;53.240;8.798;2023-04-25T07:04:58;2.22;;;0.80;;
31764;SDS011;18338;53.240;8.798;2023-04-25T07:07:26;5.63;;;1.50;;
31764;SDS011;18338;53.240;8.798;2023-04-25T07:09:53;8.65;;;1.60;;
31764;SDS011;18338;53.240;8.798;2023-04-25T07:12:20;6.28;;;1.38;;
31764;SDS011;18338;53.240;8.798;2023-04-25T07:14:47;4.95;;;1.35;;
31764;SDS011;18338;53.240;8.798;2023-04-25T07:17:14;3.88;;;1.13;;
31764;SDS011;18338;53.240;8.798;2023-04-25T07:19:41;7.88;;;2.30;;
31764;SDS011;18338;53.240;8.798;2023-04-25T07:22:08;4.28;;;1.15;;
31764;SDS011;18338;53.240;8.798;2023-04-25T07:24:35;6.57;;;1.45;;
31764;SDS011;18338;53.240;8.798;2023-04-25T07:27:02;5.18;;;1.10;;
31764;SDS011;18338;53.240;8.798;2023-04-25T07:29:29;6.80;;;1.98;;
31764;SDS011;18338;53.240;8.798;2023-04-25T07:31:57;5.38;;;2.08;;
31764;SDS011;18338;53.240;8.798;2023-04-25T07:34:24;7.65;;;1.52;;
31764;SDS011;18338;53.240;8.798;2023-04-25T07:36:51;7.75;;;1.73;;
31764;SDS011;18338;53.240;8.798;2023-04-25T07:39:18;7.85;;;2.25;;
31764;SDS011;18338;53.240;8.798;2023-04-25T07:41:45;14.27;;;2.03;;
31764;SDS011;18338;53.240;8.798;2023-04-25T07:44:12;8.75;;;1.67;;
31764;SDS011;18338;53.240;8.798;2023-04-25T07:46:39;3.83;;;1.10;;
31764;SDS011;18338;53.240;8.798;2023-04-25T07:49:06;6.13;;;1.85;;
31764;SDS011;18338;53.240;8.798;2023-04-25T07:51:32;6.30;;;1.30;;
31764;SDS011;18338;53.240;8.798;2023-04-25T07:53:59;7.18;;;1.60;;
31764;SDS011;18338;53.240;8.798;2023-04-25T07:56:26;4.60;;;1.27;;
31764;SDS011;18338;53.240;8.798;2023-04-25T07:59:03;8.45;;;1.85;;
31764;SDS011;18338;53.240;8.798;2023-04-25T08:01:30;9.98;;;2.13;;
31764;SDS011;18338;53.240;8.798;2023-04-25T08:03:57;8.60;;;1.65;;
31764;SDS011;18338;53.240;8.798;2023-04-25T08:06:24;7.32;;;1.80;;
31764;SDS011;18338;53.240;8.798;2023-04-25T08:08:52;8.75;;;1.65;;
31764;SDS011;18338;53.240;8.798;2023-04-25T08:11:18;6.93;;;1.75;;
31764;SDS011;18338;53.240;8.798;2023-04-25T08:13:45;4.38;;;1.55;;
31764;SDS011;18338;53.240;8.798;2023-04-25T08:16:12;6.38;;;1.70;;
31764;SDS011;18338;53.240;8.798;2023-04-25T08:18:38;4.00;;;1.20;;
31764;SDS011;18338;53.240;8.798;2023-04-25T08:21:05;5.07;;;1.95;;
31764;SDS011;18338;53.240;8.798;2023-04-25T08:23:32;4.63;;;1.20;;
31764;SDS011;18338;53.240;8.798;2023-04-25T08:26:00;6.38;;;1.00;;
31764;SDS011;18338;53.240;8.798;2023-04-25T08:28:27;5.70;;;1.52;;
31764;SDS011;18338;53.240;8.798;2023-04-25T08:30:54;6.80;;;1.40;;
31764;SDS011;18338;53.240;8.798;2023-04-25T08:33:22;5.00;;;1.05;;
31764;SDS011;18338;53.240;8.798;2023-04-25T08:35:48;4.32;;;1.23;;
31764;SDS011;18338;53.240;8.798;2023-04-25T08:38:16;5.97;;;0.80;;
31764;SDS011;18338;53.240;8.798;2023-04-25T08:40:44;5.40;;;1.27;;
31764;SDS011;18338;53.240;8.798;2023-04-25T08:43:18;4.10;;;0.70;;
31764;SDS011;18338;53.240;8.798;2023-04-25T08:45:45;5.60;;;1.33;;
31764;SDS011;18338;53.240;8.798;2023-04-25T08:48:13;2.97;;;0.93;;
31764;SDS011;18338;53.240;8.798;2023-04-25T08:50:49;5.63;;;0.95;;
31764;SDS011;18338;53.240;8.798;2023-04-25T08:53:22;4.05;;;0.93;;
31764;SDS011;18338;53.240;8.798;2023-04-25T08:55:54;4.50;;;1.20;;
31764;SDS011;18338;53.240;8.798;2023-04-25T08:58:23;4.35;;;0.88;;
31764;SDS011;18338;53.240;8.798;2023-04-25T09:00:51;3.65;;;0.93;;
31764;SDS011;18338;53.240;8.798;2023-04-25T09:03:19;2.55;;;1.02;;
31764;SDS011;18338;53.240;8.798;2023-04-25T09:05:46;4.50;;;0.90;;
31764;SDS011;18338;53.240;8.798;2023-04-25T09:08:13;2.42;;;0.85;;
31764;SDS011;18338;53.240;8.798;2023-04-25T09:10:40;3.70;;;0.93;;
31764;SDS011;18338;53.240;8.798;2023-04-25T09:13:08;2.33;;;1.00;;
31764;SDS011;18338;53.240;8.798;2023-04-25T09:18:22;3.47;;;1.15;;
31764;SDS011;18338;53.240;8.798;2023-04-25T09:20:56;4.20;;;0.80;;
31764;SDS011;18338;53.240;8.798;2023-04-25T09:23:40;2.78;;;0.68;;
31764;SDS011;18338;53.240;8.798;2023-04-25T09:26:09;4.75;;;0.90;;
31764;SDS011;18338;53.240;8.798;2023-04-25T09:28:40;3.90;;;1.15;;
31764;SDS011;18338;53.240;8.798;2023-04-25T09:31:09;4.22;;;0.80;;
31764;SDS011;18338;53.240;8.798;2023-04-25T09:33:37;4.75;;;1.08;;
31764;SDS011;18338;53.240;8.798;2023-04-25T09:36:05;5.35;;;1.00;;
31764;SDS011;18338;53.240;8.798;2023-04-25T09:38:44;3.97;;;0.77;;
31764;SDS011;18338;53.240;8.798;2023-04-25T09:41:11;2.42;;;0.70;;
31764;SDS011;18338;53.240;8.798;2023-04-25T09:43:38;3.25;;;0.80;;
31764;SDS011;18338;53.240;8.798;2023-04-25T09:46:09;4.20;;;1.67;;
31764;SDS011;18338;53.240;8.798;2023-04-25T09:48:37;4.38;;;0.60;;
31764;SDS011;18338;53.240;8.798;2023-04-25T09:51:12;3.53;;;0.77;;
31764;SDS011;18338;53.240;8.798;2023-04-25T09:53:41;4.32;;;0.90;;
31764;SDS011;18338;53.240;8.798;2023-04-25T09:56:18;2.83;;;0.70;;
31764;SDS011;18338;53.240;8.798;2023-04-25T09:58:47;2.53;;;0.68;;
31764;SDS011;18338;53.240;8.798;2023-04-25T10:01:17;4.40;;;0.80;;
31764;SDS011;18338;53.240;8.798;2023-04-25T10:03:46;3.70;;;1.00;;
31764;SDS011;18338;53.240;8.798;2023-04-25T10:06:18;1.65;;;0.70;;
31764;SDS011;18338;53.240;8.798;2023-04-25T10:08:46;4.30;;;0.80;;
31764;SDS011;18338;53.240;8.798;2023-04-25T10:11:17;3.55;;;0.90;;
31764;SDS011;18338;53.240;8.798;2023-04-25T10:13:44;3.95;;;0.82;;
31764;SDS011;18338;53.240;8.798;2023-04-25T10:16:11;3.40;;;1.05;;
31764;SDS011;18338;53.240;8.798;2023-04-25T10:18:39;4.68;;;0.82;;
31764;SDS011;18338;53.240;8.798;2023-04-25T10:21:06;3.08;;;0.90;;
31764;SDS011;18338;53.240;8.798;2023-04-25T10:23:33;3.33;;;0.70;;
31764;SDS011;18338;53.240;8.798;2023-04-25T10:26:02;5.38;;;1.00;;
31764;SDS011;18338;53.240;8.798;2023-04-25T10:28:30;2.38;;;1.02;;
31764;SDS011;18338;53.240;8.798;2023-04-25T10:31:27;3.53;;;0.82;;
31764;SDS011;18338;53.240;8.798;2023-04-25T10:33:56;3.40;;;0.90;;
31764;SDS011;18338;53.240;8.798;2023-04-25T10:36:23;4.15;;;1.35;;
31764;SDS011;18338;53.240;8.798;2023-04-25T10:38:53;4.35;;;1.00;;
31764;SDS011;18338;53.240;8.798;2023-04-25T10:41:20;5.50;;;1.20;;
31764;SDS011;18338;53.240;8.798;2023-04-25T10:43:50;2.42;;;0.73;;
31764;SDS011;18338;53.240;8.798;2023-04-25T10:46:27;3.92;;;0.93;;
31764;SDS011;18338;53.240;8.798;2023-04-25T10:48:58;5.10;;;1.17;;
31764;SDS011;18338;53.240;8.798;2023-04-25T10:51:30;6.38;;;2.10;;
31764;SDS011;18338;53.240;8.798;2023-04-25T10:54:18;1.67;;;0.77;;
31764;SDS011;18338;53.240;8.798;2023-04-25T10:56:48;3.63;;;0.85;;
31764;SDS011;18338;53.240;8.798;2023-04-25T11:01:47;2.80;;;0.80;;
31764;SDS011;18338;53.240;8.798;2023-04-25T11:04:29;4.20;;;0.75;;
31764;SDS011;18338;53.240;8.798;2023-04-25T11:09:52;3.03;;;0.68;;
31764;SDS011;18338;53.240;8.798;2023-04-25T11:12:19;4.40;;;0.77;;
31764;SDS011;18338;53.240;8.798;2023-04-25T11:14:46;2.00;;;0.52;;
31764;SDS011;18338;53.240;8.798;2023-04-25T11:17:14;3.90;;;0.70;;
31764;SDS011;18338;53.240;8.798;2023-04-25T11:19:40;2.35;;;0.73;;
31764;SDS011;18338;53.240;8.798;2023-04-25T11:22:07;5.32;;;0.82;;
31764;SDS011;18338;53.240;8.798;2023-04-25T11:24:36;2.80;;;0.82;;
31764;SDS011;18338;53.240;8.798;2023-04-25T11:27:03;3.03;;;0.63;;
31764;SDS011;18338;53.240;8.798;2023-04-25T11:29:32;3.92;;;0.85;;
31764;SDS011;18338;53.240;8.798;2023-04-25T11:32:01;8.05;;;1.00;;
31764;SDS011;18338;53.240;8.798;2023-04-25T11:34:28;3.38;;;1.00;;
31764;SDS011;18338;53.240;8.798;2023-04-25T11:36:57;5.35;;;0.90;;
31764;SDS011;18338;53.240;8.798;2023-04-25T11:39:26;3.13;;;0.82;;
31764;SDS011;18338;53.240;8.798;2023-04-25T11:41:53;4.78;;;0.88;;
31764;SDS011;18338;53.240;8.798;2023-04-25T11:44:21;3.50;;;0.80;;
31764;SDS011;18338;53.240;8.798;2023-04-25T11:46:48;6.03;;;1.10;;
31764;SDS011;18338;53.240;8.798;2023-04-25T11:49:15;3.00;;;0.98;;
31764;SDS011;18338;53.240;8.798;2023-04-25T11:51:45;4.45;;;1.25;;
31764;SDS011;18338;53.240;8.798;2023-04-25T11:54:13;4.03;;;1.05;;
31764;SDS011;18338;53.240;8.798;2023-04-25T11:56:41;3.13;;;1.08;;
31764;SDS011;18338;53.240;8.798;2023-04-25T11:59:08;5.55;;;1.40;;
31764;SDS011;18338;53.240;8.798;2023-04-25T12:01:37;4.03;;;0.90;;
31764;SDS011;18338;53.240;8.798;2023-04-25T12:04:14;4.80;;;0.70;;
31764;SDS011;18338;53.240;8.798;2023-04-25T12:06:50;5.72;;;1.00;;
31764;SDS011;18338;53.240;8.798;2023-04-25T12:09:31;5.30;;;1.20;;
31764;SDS011;18338;53.240;8.798;2023-04-25T12:12:00;4.15;;;0.82;;
31764;SDS011;18338;53.240;8.798;2023-04-25T12:14:32;4.50;;;1.02;;
31764;SDS011;18338;53.240;8.798;2023-04-25T12:17:02;4.63;;;0.90;;
31764;SDS011;18338;53.240;8.798;2023-04-25T12:19:34;2.58;;;0.80;;
31764;SDS011;18338;53.240;8.798;2023-04-25T12:22:18;6.18;;;0.98;;
31764;SDS011;18338;53.240;8.798;2023-04-25T12:24:47;5.13;;;0.90;;
31764;SDS011;18338;53.240;8.798;2023-04-25T12:27:14;4.30;;;0.95;;
31764;SDS011;18338;53.240;8.798;2023-04-25T12:29:49;3.25;;;0.80;;
31764;SDS011;18338;53.240;8.798;2023-04-25T12:32:20;3.33;;;0.85;;
31764;SDS011;18338;53.240;8.798;2023-04-25T12:34:48;2.35;;;0.90;;
31764;SDS011;18338;53.240;8.798;2023-04-25T12:37:14;6.32;;;1.15;;
31764;SDS011;18338;53.240;8.798;2023-04-25T12:39:41;5.05;;;1.08;;
31764;SDS011;18338;53.240;8.798;2023-04-25T12:42:08;3.42;;;1.30;;
31764;SDS011;18338;53.240;8.798;2023-04-25T12:44:38;1.80;;;0.80;;
31764;SDS011;18338;53.240;8.798;2023-04-25T12:47:05;4.00;;;1.02;;
31764;SDS011;18338;53.240;8.798;2023-04-25T12:49:32;6.25;;;1.17;;
31764;SDS011;18338;53.240;8.798;2023-04-25T12:51:59;4.13;;;0.70;;
31764;SDS011;18338;53.240;8.798;2023-04-25T12:54:26;3.90;;;1.42;;
31764;SDS011;18338;53.240;8.798;2023-04-25T12:56:52;2.42;;;0.90;;
31764;SDS011;18338;53.240;8.798;2023-04-25T12:59:19;4.38;;;1.00;;
31764;SDS011;18338;53.240;8.798;2023-04-25T13:01:47;3.83;;;1.08;;
31764;SDS011;18338;53.240;8.798;2023-04-25T13:04:14;3.08;;;0.73;;
31764;SDS011;18338;53.240;8.798;2023-04-25T13:06:42;4.43;;;1.25;;
31764;SDS011;18338;53.240;8.798;2023-04-25T13:09:09;4.45;;;0.98;;
31764;SDS011;18338;53.240;8.798;2023-04-25T13:11:36;5.78;;;1.15;;
31764;SDS011;18338;53.240;8.798;2023-04-25T13:14:04;3.55;;;0.65;;
31764;SDS011;18338;53.240;8.798;2023-04-25T13:16:31;3.90;;;0.90;;
31764;SDS011;18338;53.240;8.798;2023-04-25T13:18:58;5.60;;;0.90;;
31764;SDS011;18338;53.240;8.798;2023-04-25T13:21:25;5.50;;;1.25;;
31764;SDS011;18338;53.240;8.798;2023-04-25T13:23:53;2.53;;;0.75;;
31764;SDS011;18338;53.240;8.798;2023-04-25T13:26:20;2.15;;;0.80;;
31764;SDS011;18338;53.240;8.798;2023-04-25T13:28:47;3.20;;;0.82;;
31764;SDS011;18338;53.240;8.798;2023-04-25T13:31:13;3.60;;;0.88;;
31764;SDS011;18338;53.240;8.798;2023-04-25T13:33:40;4.57;;;1.02;;
31764;SDS011;18338;53.240;8.798;2023-04-25T13:36:07;3.92;;;0.98;;
31764;SDS011;18338;53.240;8.798;2023-04-25T13:38:34;3.08;;;0.70;;
31764;SDS011;18338;53.240;8.798;2023-04-25T13:41:01;5.95;;;1.10;;
31764;SDS011;18338;53.240;8.798;2023-04-25T13:43:27;3.65;;;1.02;;
31764;SDS011;18338;53.240;8.798;2023-04-25T13:45:54;4.47;;;1.10;;
31764;SDS011;18338;53.240;8.798;2023-04-25T13:48:21;5.30;;;1.17;;
31764;SDS011;18338;53.240;8.798;2023-04-25T13:50:48;2.92;;;0.90;;
31764;SDS011;18338;53.240;8.798;2023-04-25T13:53:15;2.85;;;0.82;;
31764;SDS011;18338;53.240;8.798;2023-04-25T13:55:42;3.40;;;0.90;;
31764;SDS011;18338;53.240;8.798;2023-04-25T13:58:09;4.35;;;0.82;;
31764;SDS011;18338;53.240;8.798;2023-04-25T14:00:37;1.58;;;0.73;;
31764;SDS011;18338;53.240;8.798;2023-04-25T14:03:05;5.28;;;1.40;;
31764;SDS011;18338;53.240;8.798;2023-04-25T14:05:34;3.78;;;1.00;;
31764;SDS011;18338;53.240;8.798;2023-04-25T14:08:05;4.43;;;1.02;;
31764;SDS011;18338;53.240;8.798;2023-04-25T14:10:34;4.50;;;1.00;;
31764;SDS011;18338;53.240;8.798;2023-04-25T14:13:02;3.35;;;0.60;;
31764;SDS011;18338;53.240;8.798;2023-04-25T14:15:32;3.58;;;1.00;;
31764;SDS011;18338;53.240;8.798;2023-04-25T14:18:00;5.53;;;1.30;;
31764;SDS011;18338;53.240;8.798;2023-04-25T14:20:28;2.33;;;0.90;;
31764;SDS011;18338;53.240;8.798;2023-04-25T14:22:55;5.63;;;1.80;;
31764;SDS011;18338;53.240;8.798;2023-04-25T14:25:24;7.90;;;1.35;;
31764;SDS011;18338;53.240;8.798;2023-04-25T14:27:51;5.22;;;1.42;;
31764;SDS011;18338;53.240;8.798;2023-04-25T14:30:19;4.65;;;1.25;;
31764;SDS011;18338;53.240;8.798;2023-04-25T14:32:47;5.35;;;0.98;;
31764;SDS011;18338;53.240;8.798;2023-04-25T14:35:15;5.30;;;1.02;;
31764;SDS011;18338;53.240;8.798;2023-04-25T14:37:42;6.28;;;1.10;;
31764;SDS011;18338;53.240;8.798;2023-04-25T14:40:09;6.15;;;1.63;;
31764;SDS011;18338;53.240;8.798;2023-04-25T14:42:37;3.63;;;0.88;;
31764;SDS011;18338;53.240;8.798;2023-04-25T14:45:05;5.30;;;1.50;;
31764;SDS011;18338;53.240;8.798;2023-04-25T14:47:34;5.32;;;1.20;;
31764;SDS011;18338;53.240;8.798;2023-04-25T14:50:02;2.42;;;0.77;;
31764;SDS011;18338;53.240;8.798;2023-04-25T14:52:29;3.97;;;1.00;;
31764;SDS011;18338;53.240;8.798;2023-04-25T14:54:55;4.60;;;1.15;;
31764;SDS011;18338;53.240;8.798;2023-04-25T14:57:22;2.78;;;0.95;;